Itasca, TX (76055)

10:21 AM CST on December 27, 2014 (GMT -0600)
Hillsboro | Change Station
CLOSE
Current Station
Airport
Location: Hillsboro,
Elevation: 686 ft
Nearby Weather Stations

Elev 686 ft 32.08 °N, 97.10 °W | Updated 26 minutes ago

Overcast
Overcast
44 °F
Feels Like 35 °F
N
24
Wind Variable Wind from North
Gusts 33 mph

Today
High -- | Low -- °F
--% Chance of Precip.
Yesterday
High -- | Low -- °F
Precip. -- in
7:28 AM 5:31 PM
Waxing Crescent, 38% visible
Pressure 30.20 in
Visibility 10.0 miles
Clouds Overcast 3500 ft
Windchill 35 °F
Dew Point 34 °F
Humidity 68%
Rainfall 0.00 in
Snow Depth Not available.
UV 1 out of 12
Pollen 9.60 out of 12
Air Quality Not available.
Flu Activity Not available.
METAR KINJ 271555Z AUTO 35021G29KT 10SM OVC035 07/01 A3020 RMK AO2 T00660010

More Conditions Fewer Conditions

Pressure 30.20 in
Visibility 10.0 miles
Clouds Overcast 3500 ft
Windchill 35 °F
Dew Point 34 °F
Humidity 68%
Rainfall 0.00 in
Snow Depth Not available.
UV 1 out of 12
Pollen 9.60 out of 12
Air Quality Not available.
Flu Activity Not available.
METAR KINJ 271555Z AUTO 35021G29KT 10SM OVC035 07/01 A3020 RMK AO2 T00660010

More Conditions Fewer Conditions

Nowcast | as of 8:59 am CST on December 27, 2014

Widely scattered light rain showers will continue to progress northeastward across much of north and central Texas today. Total rainfall amounts will average less than one tenth of an inch for areas that do receive rain. Areas northwest of a Gainesville to Weatherford to Eastland line may see a mix of sleet and snow with mostly rain. No significant accumulations or impacts are expected. Elsewhere...skies will be cloudy with northwest winds at 15 to 20 mph. Temperatures will remain steady or fall slightly through the day...with most areas in the upper 30s and 40s.

×

10-Day Weather Forecast

Almanac

Astronomy

Dec. 27, 2014 Rise Set
Actual Time
Civil Twilight
Nautical Twilight
Astronomical Twilight
Moon
Length of Visible Light
Length of Day
Tomorrow will be .
, % of the Moon is Illuminated

Today's Extremes

State Highs State Lows

Community

WunderPhotos

Upload Photos

1,780,946 photos uploaded!

WunderBlogs® & News

Nearby

Air Quality

  Air Quality AQ Index Pollutant
Not available.

Snow Depth

Station Depth Elevation

Earthquake Activity

City Distance Mag. Time & Date
Minimum magnitude displayed is 2.5.

Coastal Water Temperatures

Place Temperature

Nearby Weather Stations